createdAt,value
2018-05-14T00:02:14.476Z,28.94
2018-05-14T00:04:46.861Z,28.83
2018-05-14T00:07:18.763Z,28.61
2018-05-14T00:09:50.173Z,28.59
2018-05-14T00:12:22.724Z,28.58
2018-05-14T00:14:54.153Z,28.65
2018-05-14T00:17:26.266Z,28.73
2018-05-14T00:19:58.643Z,28.84
2018-05-14T00:22:30.309Z,28.91
2018-05-14T00:25:02.742Z,28.99
2018-05-14T00:27:34.180Z,29.12
2018-05-14T00:30:06.059Z,29.18
2018-05-14T00:32:37.530Z,29.25
2018-05-14T00:35:09.007Z,29.25
2018-05-14T00:37:41.469Z,29.33
2018-05-14T00:40:13.021Z,29.43
2018-05-14T00:42:44.513Z,29.34
2018-05-14T00:45:16.474Z,29.28
2018-05-14T00:47:47.977Z,29.35
2018-05-14T00:50:19.377Z,29.49
2018-05-14T00:52:50.938Z,29.52
2018-05-14T00:55:22.657Z,29.54
2018-05-14T00:57:54.101Z,29.61
2018-05-14T01:00:26.149Z,29.64
2018-05-14T01:02:58.633Z,29.79
2018-05-14T01:05:29.673Z,29.91
2018-05-14T01:08:00.276Z,29.88
2018-05-14T01:10:33.783Z,29.82
2018-05-14T01:13:06.150Z,29.84
2018-05-14T01:15:36.909Z,29.71
2018-05-14T01:18:07.483Z,29.57
2018-05-14T01:20:38.038Z,29.46
2018-05-14T01:23:08.551Z,29.32
2018-05-14T01:25:38.855Z,29.13
2018-05-14T01:28:09.404Z,29.07
2018-05-14T01:30:40.212Z,29.00
2018-05-14T01:33:10.811Z,28.99
2018-05-14T01:35:43.215Z,29.11
2018-05-14T01:38:13.785Z,29.03
2018-05-14T01:40:44.365Z,28.90
2018-05-14T01:43:14.957Z,28.93
2018-05-14T01:45:45.778Z,28.89
2018-05-14T01:48:16.299Z,28.90
2018-05-14T01:50:46.899Z,28.86
2018-05-14T01:53:17.500Z,28.85
2018-05-14T01:55:48.082Z,28.90
2018-05-14T01:58:18.698Z,28.94
2018-05-14T02:00:49.301Z,28.83
2018-05-14T02:03:19.837Z,28.88
2018-05-14T02:05:50.377Z,28.85
2018-05-14T02:08:20.953Z,28.78
2018-05-14T02:10:51.527Z,28.70
2018-05-14T02:13:22.101Z,28.62
2018-05-14T02:15:52.726Z,28.53
2018-05-14T02:18:23.304Z,28.39
2018-05-14T02:20:53.901Z,28.24
2018-05-14T02:23:24.523Z,28.11
2018-05-14T02:25:55.136Z,28.05
2018-05-14T02:28:25.731Z,27.86
2018-05-14T02:30:56.339Z,27.82
2018-05-14T02:33:26.883Z,27.70
2018-05-14T02:35:57.589Z,27.57
2018-05-14T02:38:28.169Z,27.64
2018-05-14T02:40:59.106Z,27.62
2018-05-14T02:43:29.773Z,27.59
2018-05-14T02:46:00.547Z,27.67
2018-05-14T02:48:31.284Z,27.66
2018-05-14T02:51:01.943Z,27.62
2018-05-14T02:53:33.281Z,27.60
2018-05-14T02:56:03.956Z,27.54
2018-05-14T02:58:35.087Z,27.48
2018-05-14T03:01:05.717Z,27.47
2018-05-14T03:03:36.514Z,27.41
2018-05-14T03:06:07.043Z,27.36
2018-05-14T03:08:37.970Z,27.25
2018-05-14T03:11:08.545Z,27.31
2018-05-14T03:13:39.181Z,27.45
2018-05-14T03:16:09.816Z,27.58
2018-05-14T03:18:40.299Z,27.59
2018-05-14T03:21:11.006Z,27.63
2018-05-14T03:23:41.605Z,27.68
2018-05-14T03:26:12.236Z,27.79
2018-05-14T03:28:42.852Z,27.88
2018-05-14T03:31:13.479Z,28.00
2018-05-14T03:33:44.052Z,28.26
2018-05-14T03:36:14.443Z,28.40
2018-05-14T03:38:44.990Z,28.52
2018-05-14T03:41:15.623Z,28.74
2018-05-14T03:43:46.241Z,28.96
2018-05-14T03:46:16.962Z,29.13
2018-05-14T03:48:47.519Z,29.25
2018-05-14T03:51:18.061Z,29.40
2018-05-14T03:53:48.657Z,29.46
2018-05-14T03:56:19.235Z,29.61
2018-05-14T04:02:00.808Z,29.69
2018-05-14T04:05:39.354Z,29.44
2018-05-14T04:08:09.696Z,29.20
2018-05-14T04:10:40.769Z,29.23
2018-05-14T04:13:11.400Z,29.12
2018-05-14T04:15:42.197Z,29.10
2018-05-14T04:18:12.800Z,29.04
2018-05-14T04:20:43.672Z,29.07
2018-05-14T04:23:14.298Z,28.97
2018-05-14T04:25:44.904Z,28.82
2018-05-14T04:28:15.496Z,28.84
2018-05-14T04:30:46.125Z,29.06
2018-05-14T04:33:16.732Z,29.11
2018-05-14T04:35:47.367Z,29.12
2018-05-14T04:38:17.948Z,29.17
2018-05-14T04:40:48.657Z,29.17
2018-05-14T04:43:21.095Z,29.10
2018-05-14T04:45:51.684Z,29.03
2018-05-14T04:48:28.773Z,28.93
2018-05-14T04:50:59.432Z,28.87
2018-05-14T04:53:30.881Z,28.76
2018-05-14T04:56:01.827Z,28.69
2018-05-14T04:58:32.492Z,28.77
2018-05-14T05:01:03.234Z,28.90
2018-05-14T05:03:33.833Z,29.05
2018-05-14T05:06:04.448Z,29.05
2018-05-14T05:08:35.319Z,29.15
2018-05-14T05:11:05.943Z,29.19
2018-05-14T05:13:37.046Z,29.24
2018-05-14T05:16:07.746Z,29.21
2018-05-14T05:18:38.627Z,29.29
2018-05-14T05:21:09.240Z,29.40
2018-05-14T05:23:40.110Z,29.48
2018-05-14T05:26:10.780Z,29.44
2018-05-14T05:28:41.747Z,29.46
2018-05-14T05:31:12.382Z,29.52
2018-05-14T05:33:43.164Z,29.46
2018-05-14T05:36:13.780Z,29.41
2018-05-14T05:38:44.652Z,29.50
2018-05-14T05:41:15.376Z,29.49
2018-05-14T05:43:45.978Z,29.47
2018-05-14T05:46:18.492Z,29.61
2018-05-14T05:48:49.085Z,29.67
2018-05-14T05:51:19.621Z,29.74
2018-05-14T05:53:50.248Z,29.88
2018-05-14T05:56:20.828Z,30.01
2018-05-14T05:58:51.409Z,30.11
2018-05-14T06:01:22.050Z,30.08
2018-05-14T06:03:52.824Z,30.19
2018-05-14T06:06:23.420Z,30.29
2018-05-14T06:08:53.988Z,30.48
2018-05-14T06:11:24.528Z,30.53
2018-05-14T06:13:55.263Z,30.68
2018-05-14T06:16:25.927Z,30.79
2018-05-14T06:18:56.561Z,30.95
2018-05-14T06:21:27.217Z,31.25
2018-05-14T06:23:59.044Z,31.50
2018-05-14T06:26:29.616Z,31.69
2018-05-14T06:29:00.210Z,31.94
2018-05-14T06:31:30.872Z,32.00
2018-05-14T06:34:01.467Z,32.13
2018-05-14T06:36:33.242Z,32.42
2018-05-14T06:39:04.650Z,32.62
2018-05-14T06:41:35.448Z,32.79
2018-05-14T06:44:06.085Z,32.61
2018-05-14T06:46:37.116Z,32.33
2018-05-14T06:49:08.013Z,32.17
2018-05-14T06:51:39.719Z,32.07
2018-05-14T06:54:10.431Z,32.04
2018-05-14T06:56:41.729Z,32.03
2018-05-14T06:59:12.349Z,32.13
2018-05-14T07:01:43.342Z,32.24
2018-05-14T07:04:14.534Z,32.36
2018-05-14T07:06:45.520Z,32.43
2018-05-14T07:09:16.080Z,32.57
2018-05-14T07:11:46.696Z,32.67
2018-05-14T07:14:17.237Z,32.66
2018-05-14T07:16:47.880Z,32.60
2018-05-14T07:19:18.509Z,32.60
2018-05-14T07:21:49.272Z,32.58
2018-05-14T07:24:19.797Z,32.58
2018-05-14T07:26:50.384Z,32.51
2018-05-14T07:29:21.174Z,32.40
2018-05-14T07:31:51.673Z,32.33
2018-05-14T07:34:22.320Z,32.26
2018-05-14T07:36:52.884Z,32.33
2018-05-14T07:39:23.677Z,32.29
2018-05-14T07:41:54.246Z,32.39
2018-05-14T07:44:24.797Z,32.49
2018-05-14T07:46:55.302Z,32.66
2018-05-14T07:49:25.864Z,32.86
2018-05-14T07:51:56.383Z,33.01
2018-05-14T07:54:27.068Z,33.09
2018-05-14T07:56:57.708Z,33.38
2018-05-14T07:59:28.369Z,33.52
2018-05-14T08:01:59.033Z,33.62
2018-05-14T08:04:30.068Z,33.62
2018-05-14T08:07:00.666Z,33.74
2018-05-14T08:09:31.210Z,33.89
2018-05-14T08:12:01.831Z,34.01
2018-05-14T08:14:32.351Z,34.18
2018-05-14T08:17:03.009Z,34.34
2018-05-14T08:19:33.714Z,34.36
2018-05-14T08:22:04.600Z,34.29
2018-05-14T08:24:35.402Z,34.23
2018-05-14T08:27:06.053Z,34.03
2018-05-14T08:29:37.141Z,33.71
2018-05-14T08:32:07.505Z,33.48
2018-05-14T08:34:38.308Z,33.39
2018-05-14T08:37:15.719Z,33.25
2018-05-14T08:39:46.328Z,32.81
2018-05-14T08:42:17.204Z,32.43
2018-05-14T08:44:47.948Z,31.97
2018-05-14T08:47:18.569Z,31.59
2018-05-14T08:49:49.310Z,31.41
2018-05-14T08:52:19.944Z,31.30
2018-05-14T08:54:50.283Z,31.24
2018-05-14T08:57:20.904Z,31.28
2018-05-14T08:59:51.783Z,31.34
2018-05-14T09:02:22.336Z,31.30
2018-05-14T09:04:52.682Z,31.40
2018-05-14T09:07:27.081Z,31.57
2018-05-14T09:09:57.597Z,31.63
2018-05-14T09:12:28.193Z,31.66
2018-05-14T09:14:58.896Z,31.67
2018-05-14T09:17:29.494Z,31.74
2018-05-14T09:20:00.111Z,31.85
2018-05-14T09:22:31.646Z,31.82
2018-05-14T09:25:02.287Z,31.83
2018-05-14T09:27:32.956Z,31.83
2018-05-14T09:30:05.551Z,31.81
2018-05-14T09:32:36.766Z,31.72
2018-05-14T09:35:07.481Z,31.66
2018-05-14T09:37:40.178Z,31.67
2018-05-14T09:40:10.808Z,31.74
2018-05-14T09:42:42.879Z,31.82
2018-05-14T09:45:14.867Z,31.92
2018-05-14T09:47:46.126Z,32.01
2018-05-14T09:50:16.742Z,32.13
2018-05-14T09:52:48.188Z,32.29
2018-05-14T09:55:18.780Z,32.45
2018-05-14T09:57:49.495Z,32.60
2018-05-14T10:00:20.108Z,32.81
2018-05-14T10:02:50.830Z,33.11
2018-05-14T10:05:21.421Z,33.40
2018-05-14T10:07:52.013Z,33.67
2018-05-14T10:10:22.602Z,33.93
2018-05-14T10:12:53.236Z,34.18
2018-05-14T10:15:23.988Z,34.50
2018-05-14T10:17:54.943Z,34.75
2018-05-14T10:20:26.557Z,34.97
2018-05-14T10:22:57.129Z,35.14
2018-05-14T10:25:27.813Z,35.33
2018-05-14T10:27:58.557Z,35.49
2018-05-14T10:30:29.137Z,35.50
2018-05-14T10:32:59.723Z,35.61
2018-05-14T10:35:30.253Z,35.83
2018-05-14T10:38:00.978Z,36.18
2018-05-14T10:43:38.622Z,37.09
2018-05-14T10:46:09.247Z,37.45
2018-05-14T10:48:39.833Z,37.76
2018-05-14T10:51:10.878Z,38.11
2018-05-14T10:53:41.601Z,38.39
2018-05-14T10:56:12.319Z,38.70
2018-05-14T10:58:44.102Z,39.05
2018-05-14T11:01:14.501Z,39.41
2018-05-14T11:03:45.942Z,39.80
2018-05-14T11:06:16.624Z,39.98
2018-05-14T11:08:49.309Z,40.03
2018-05-14T11:11:20.230Z,40.09
2018-05-14T11:13:51.077Z,40.24
2018-05-14T11:16:22.120Z,40.47
2018-05-14T11:18:53.479Z,40.80
2018-05-14T11:21:24.280Z,41.05
2018-05-14T11:23:55.117Z,41.28
2018-05-14T11:26:25.692Z,41.55
2018-05-14T11:28:56.321Z,41.83
2018-05-14T11:31:26.979Z,42.08
2018-05-14T11:33:57.673Z,42.40
2018-05-14T11:36:28.273Z,42.49
2018-05-14T11:38:58.888Z,42.39
2018-05-14T11:41:29.484Z,42.40
2018-05-14T11:44:00.059Z,42.14
2018-05-14T11:46:30.577Z,42.15
2018-05-14T11:49:01.217Z,42.02
2018-05-14T11:51:31.781Z,41.96
2018-05-14T11:54:02.359Z,42.03
2018-05-14T11:56:32.984Z,42.05
2018-05-14T11:59:03.598Z,42.03
2018-05-14T12:01:34.285Z,41.73
2018-05-14T12:04:04.862Z,41.59
2018-05-14T12:06:35.190Z,41.76
2018-05-14T12:09:06.394Z,41.95
2018-05-14T12:11:37.008Z,42.17
2018-05-14T12:14:07.581Z,42.49
2018-05-14T12:16:38.245Z,42.76
2018-05-14T12:19:08.871Z,42.83
2018-05-14T12:21:39.460Z,42.96
2018-05-14T12:24:10.040Z,43.01
2018-05-14T12:26:40.624Z,42.90
2018-05-14T12:29:11.199Z,42.69
2018-05-14T12:31:41.775Z,42.55
2018-05-14T12:34:12.441Z,42.70
2018-05-14T12:36:43.165Z,42.97
2018-05-14T12:39:15.878Z,43.16
2018-05-14T12:41:48.259Z,43.23
2018-05-14T12:44:20.158Z,43.24
2018-05-14T12:46:54.501Z,43.15
2018-05-14T12:49:25.081Z,43.34
2018-05-14T12:51:56.287Z,43.62
2018-05-14T12:54:27.034Z,43.83
2018-05-14T12:56:57.714Z,43.90
2018-05-14T12:59:28.350Z,43.81
2018-05-14T13:01:58.900Z,43.54
2018-05-14T13:04:29.433Z,43.58
2018-05-14T13:07:00.054Z,43.76
2018-05-14T13:09:32.616Z,43.84
2018-05-14T13:12:03.696Z,43.75
2018-05-14T13:14:34.290Z,43.68
2018-05-14T13:17:04.957Z,43.73
2018-05-14T13:19:35.504Z,44.10
2018-05-14T13:22:06.233Z,44.25
2018-05-14T13:24:38.751Z,43.94
2018-05-14T13:27:09.491Z,43.23
2018-05-14T13:29:41.913Z,41.84
2018-05-14T13:32:14.241Z,40.56
2018-05-14T13:34:46.139Z,39.53
2018-05-14T13:37:16.762Z,38.33
2018-05-14T13:39:49.545Z,37.00
2018-05-14T13:42:20.618Z,35.93
2018-05-14T13:44:53.829Z,35.19
2018-05-14T13:47:25.312Z,34.82
2018-05-14T13:49:55.947Z,34.59
2018-05-14T13:52:26.489Z,34.44
2018-05-14T13:54:58.973Z,34.36
2018-05-14T13:57:29.553Z,34.30
2018-05-14T14:00:00.236Z,34.17
2018-05-14T14:02:32.041Z,34.20
2018-05-14T14:05:02.793Z,34.28
2018-05-14T14:07:33.476Z,34.34
2018-05-14T14:10:04.044Z,34.36
2018-05-14T14:12:34.674Z,34.21
2018-05-14T14:15:06.298Z,34.02
2018-05-14T14:17:36.978Z,33.93
2018-05-14T14:20:07.729Z,33.84
2018-05-14T14:22:38.308Z,33.72
2018-05-14T14:25:08.958Z,33.64
2018-05-14T14:27:40.516Z,33.56
2018-05-14T14:30:12.556Z,33.53
2018-05-14T14:32:43.734Z,33.57
2018-05-14T14:35:14.465Z,33.64
2018-05-14T14:37:45.657Z,33.67
2018-05-14T14:40:16.297Z,33.67
2018-05-14T14:42:48.746Z,33.65
2018-05-14T14:45:19.977Z,33.58
2018-05-14T14:47:51.863Z,33.36
2018-05-14T14:50:24.294Z,33.20
2018-05-14T14:52:55.074Z,33.09
2018-05-14T14:55:25.725Z,33.00
2018-05-14T14:57:56.481Z,33.07
2018-05-14T15:00:27.313Z,33.22
2018-05-14T15:02:57.845Z,33.44
2018-05-14T15:05:28.635Z,33.69
2018-05-14T15:07:59.353Z,33.85
2018-05-14T15:10:29.968Z,33.65
2018-05-14T15:13:00.575Z,33.28
2018-05-14T15:15:31.188Z,32.92
2018-05-14T15:18:01.781Z,32.62
2018-05-14T15:20:32.168Z,32.27
2018-05-14T15:23:02.801Z,32.01
2018-05-14T15:25:33.408Z,31.84
2018-05-14T15:28:04.036Z,32.03
2018-05-14T15:30:34.563Z,32.23
2018-05-14T15:33:05.156Z,32.36
2018-05-14T15:35:35.768Z,32.55
2018-05-14T15:38:06.366Z,32.66
2018-05-14T15:40:36.944Z,32.81
2018-05-14T15:43:07.598Z,32.91
2018-05-14T15:45:38.199Z,33.08
2018-05-14T15:48:08.750Z,32.99
2018-05-14T15:50:39.386Z,33.07
2018-05-14T15:53:10.023Z,33.22
2018-05-14T15:55:40.638Z,33.60
2018-05-14T15:58:11.314Z,33.92
2018-05-14T16:00:42.222Z,34.13
2018-05-14T16:03:12.756Z,34.36
2018-05-14T16:05:43.384Z,34.49
2018-05-14T16:08:13.918Z,34.65
2018-05-14T16:10:44.525Z,34.84
2018-05-14T16:13:15.084Z,35.10
2018-05-14T16:15:45.637Z,35.58
2018-05-14T16:18:16.137Z,36.14
2018-05-14T16:20:46.841Z,36.65
2018-05-14T16:23:17.505Z,36.73
2018-05-14T16:25:48.058Z,36.80
2018-05-14T16:28:18.613Z,37.12
2018-05-14T16:30:49.171Z,37.62
2018-05-14T16:33:19.855Z,38.18
2018-05-14T16:35:50.515Z,38.64
2018-05-14T16:38:21.115Z,39.03
2018-05-14T16:40:52.288Z,39.21
2018-05-14T16:43:22.968Z,39.20
2018-05-14T16:45:53.641Z,39.03
2018-05-14T16:48:24.209Z,38.77
2018-05-14T16:50:54.851Z,38.47
2018-05-14T16:53:25.442Z,38.19
2018-05-14T16:55:56.108Z,38.08
2018-05-14T16:58:30.328Z,37.83
2018-05-14T17:01:04.895Z,37.75
2018-05-14T17:03:35.616Z,37.73
2018-05-14T17:06:06.855Z,37.82
2018-05-14T17:08:37.381Z,37.76
2018-05-14T17:11:08.614Z,37.95
2018-05-14T17:13:39.220Z,38.18
2018-05-14T17:16:10.033Z,38.39
2018-05-14T17:18:41.512Z,38.61
2018-05-14T17:21:12.181Z,38.83
2018-05-14T17:23:43.192Z,39.09
2018-05-14T17:26:16.068Z,39.22
2018-05-14T17:28:46.721Z,39.34
2018-05-14T17:31:19.091Z,39.33
2018-05-14T17:33:49.647Z,39.23
2018-05-14T17:36:20.295Z,39.19
2018-05-14T17:38:52.908Z,39.17
2018-05-14T17:41:23.888Z,39.21
2018-05-14T17:43:54.389Z,39.10
2018-05-14T17:46:25.845Z,38.85
2018-05-14T17:48:58.202Z,38.48
2018-05-14T17:51:28.788Z,38.01
2018-05-14T17:53:59.610Z,37.55
2018-05-14T17:56:30.464Z,37.37
2018-05-14T17:59:02.082Z,37.06
2018-05-14T18:01:32.787Z,36.82
2018-05-14T18:04:05.294Z,36.49
2018-05-14T18:06:37.834Z,36.38
2018-05-14T18:09:08.563Z,36.17
2018-05-14T18:11:39.976Z,36.10
2018-05-14T18:14:11.796Z,36.01
2018-05-14T18:16:43.225Z,35.85
2018-05-14T18:19:14.738Z,35.75
2018-05-14T18:21:48.324Z,35.69
2018-05-14T18:24:20.935Z,35.69
2018-05-14T18:26:52.448Z,35.52
2018-05-14T18:29:27.963Z,35.39
2018-05-14T18:32:03.693Z,35.21
2018-05-14T18:34:39.309Z,35.18
2018-05-14T18:37:11.197Z,35.04
2018-05-14T18:39:42.678Z,34.97
2018-05-14T18:42:14.246Z,34.89
2018-05-14T18:44:45.695Z,34.78
2018-05-14T18:47:17.143Z,34.73
2018-05-14T18:49:48.711Z,34.70
2018-05-14T18:52:21.064Z,34.71
2018-05-14T18:54:52.569Z,34.67
2018-05-14T18:57:25.021Z,34.67
2018-05-14T18:59:56.816Z,34.59
2018-05-14T19:02:28.467Z,34.42
2018-05-14T19:04:59.939Z,34.30
2018-05-14T19:07:31.387Z,34.19
2018-05-14T19:10:06.822Z,34.08
2018-05-14T19:12:38.296Z,33.92
2018-05-14T19:15:14.901Z,33.76
2018-05-14T19:17:53.561Z,33.71
2018-05-14T19:20:25.999Z,33.56
2018-05-14T19:23:02.337Z,33.54
2018-05-14T19:25:35.618Z,33.43
2018-05-14T19:28:11.109Z,33.37
2018-05-14T19:30:43.518Z,33.30
2018-05-14T19:33:20.735Z,33.34
2018-05-14T19:36:00.339Z,33.28
2018-05-14T19:38:31.796Z,33.25
2018-05-14T19:41:03.423Z,33.22
2018-05-14T19:43:34.833Z,33.19
2018-05-14T19:46:06.229Z,33.23
2018-05-14T19:48:37.705Z,33.19
2018-05-14T19:51:09.427Z,33.24
2018-05-14T19:53:41.278Z,33.25
2018-05-14T19:56:13.417Z,33.17
2018-05-14T19:58:45.081Z,33.05
2018-05-14T20:01:17.664Z,33.07
2018-05-14T20:03:49.359Z,32.99
2018-05-14T20:06:23.336Z,32.93
2018-05-14T20:08:54.876Z,32.99
2018-05-14T20:11:26.782Z,33.04
2018-05-14T20:13:58.190Z,33.04
2018-05-14T20:16:29.718Z,32.91
2018-05-14T20:19:01.170Z,32.71
2018-05-14T20:21:32.580Z,32.66
2018-05-14T20:24:10.400Z,32.64
2018-05-14T20:26:42.053Z,32.53
2018-05-14T20:29:14.780Z,32.44
2018-05-14T20:31:46.399Z,32.41
2018-05-14T20:34:19.553Z,32.41
2018-05-14T20:36:51.350Z,32.29
2018-05-14T20:39:23.631Z,32.13
2018-05-14T20:42:01.523Z,32.11
2018-05-14T20:44:33.008Z,32.12
2018-05-14T20:47:04.469Z,32.07
2018-05-14T20:49:36.014Z,32.04
2018-05-14T20:52:08.355Z,32.07
2018-05-14T20:54:41.002Z,32.01
2018-05-14T20:57:12.920Z,31.98
2018-05-14T20:59:44.960Z,31.89
2018-05-14T21:02:18.509Z,31.89
2018-05-14T21:04:50.004Z,31.83
2018-05-14T21:07:22.743Z,31.73
2018-05-14T21:09:54.292Z,31.64
2018-05-14T21:12:26.727Z,31.56
2018-05-14T21:14:59.128Z,31.41
2018-05-14T21:17:30.588Z,31.35
2018-05-14T21:20:02.050Z,31.27
2018-05-14T21:22:33.460Z,31.21
2018-05-14T21:25:04.922Z,31.19
2018-05-14T21:27:36.382Z,31.24
2018-05-14T21:30:07.848Z,31.12
2018-05-14T21:32:39.308Z,31.17
2018-05-14T21:35:10.712Z,31.07
2018-05-14T21:37:41.862Z,31.03
2018-05-14T21:40:13.806Z,30.93
2018-05-14T21:42:46.404Z,30.94
2018-05-14T21:45:18.655Z,30.94
2018-05-14T21:47:50.638Z,30.91
2018-05-14T21:50:23.801Z,30.89
2018-05-14T21:52:55.375Z,30.80
2018-05-14T21:55:26.826Z,30.78
2018-05-14T21:57:58.056Z,30.75
2018-05-14T22:00:29.175Z,30.68
2018-05-14T22:03:00.378Z,30.65
2018-05-14T22:21:22.757Z,25.58
2018-05-14T22:23:54.507Z,25.93
2018-05-14T22:26:26.278Z,26.11
2018-05-14T22:28:58.103Z,26.06
2018-05-14T22:31:29.472Z,26.10
2018-05-14T22:34:00.813Z,26.19
2018-05-14T22:36:34.947Z,26.26
2018-05-14T22:39:06.862Z,26.20
2018-05-14T22:41:40.450Z,26.34
2018-05-14T22:44:11.966Z,26.27
2018-05-14T22:46:43.575Z,26.40
2018-05-14T22:49:15.954Z,26.50
2018-05-14T22:51:47.488Z,26.48
2018-05-14T22:54:28.649Z,26.48
2018-05-14T22:56:59.927Z,26.48
2018-05-14T22:59:32.626Z,26.44
2018-05-14T23:02:04.055Z,26.47
2018-05-14T23:04:35.400Z,26.50
2018-05-14T23:07:08.003Z,26.39
2018-05-14T23:09:40.290Z,26.47
2018-05-14T23:12:11.782Z,26.30
2018-05-14T23:14:47.120Z,26.30
2018-05-14T23:17:20.731Z,26.24
2018-05-14T23:19:52.124Z,26.09
2018-05-14T23:22:33.605Z,26.14
2018-05-14T23:25:05.355Z,26.04
2018-05-14T23:27:38.341Z,26.01
2018-05-14T23:30:09.921Z,25.98
2018-05-14T23:32:42.940Z,26.07
2018-05-14T23:35:15.176Z,25.95
2018-05-14T23:37:49.837Z,25.94
2018-05-14T23:40:22.029Z,25.87
2018-05-14T23:42:54.438Z,25.82
2018-05-14T23:45:33.130Z,25.82
2018-05-14T23:48:06.046Z,25.75
2018-05-14T23:50:37.706Z,25.74
2018-05-14T23:53:09.319Z,25.67
2018-05-14T23:55:40.684Z,25.71
2018-05-14T23:58:12.035Z,25.58
